sensor_id;sensor_type;location;lat;lon;timestamp;P1;durP1;ratioP1;P2;durP2;ratioP2
14118;SDS011;7138;49.246;9.100;2022-08-27T00:02:07;21.73;;;15.32;;
14118;SDS011;7138;49.246;9.100;2022-08-27T00:04:35;20.25;;;13.93;;
14118;SDS011;7138;49.246;9.100;2022-08-27T00:07:02;21.30;;;14.98;;
14118;SDS011;7138;49.246;9.100;2022-08-27T00:09:30;19.70;;;14.35;;
14118;SDS011;7138;49.246;9.100;2022-08-27T00:11:57;21.52;;;14.98;;
14118;SDS011;7138;49.246;9.100;2022-08-27T00:14:23;21.15;;;16.05;;
14118;SDS011;7138;49.246;9.100;2022-08-27T00:16:51;26.23;;;17.95;;
14118;SDS011;7138;49.246;9.100;2022-08-27T00:19:18;24.58;;;18.63;;
14118;SDS011;7138;49.246;9.100;2022-08-27T00:21:46;31.45;;;20.42;;
14118;SDS011;7138;49.246;9.100;2022-08-27T00:24:12;32.28;;;24.08;;
14118;SDS011;7138;49.246;9.100;2022-08-27T00:26:38;34.08;;;24.65;;
14118;SDS011;7138;49.246;9.100;2022-08-27T00:29:04;37.05;;;26.05;;
14118;SDS011;7138;49.246;9.100;2022-08-27T00:31:32;36.75;;;26.48;;
14118;SDS011;7138;49.246;9.100;2022-08-27T00:33:58;42.45;;;28.92;;
14118;SDS011;7138;49.246;9.100;2022-08-27T00:36:24;39.42;;;28.48;;
14118;SDS011;7138;49.246;9.100;2022-08-27T00:38:52;39.58;;;27.98;;
14118;SDS011;7138;49.246;9.100;2022-08-27T00:41:18;37.17;;;27.63;;
14118;SDS011;7138;49.246;9.100;2022-08-27T00:43:46;38.22;;;28.50;;
14118;SDS011;7138;49.246;9.100;2022-08-27T00:46:17;41.35;;;29.08;;
14118;SDS011;7138;49.246;9.100;2022-08-27T00:48:51;38.25;;;29.33;;
14118;SDS011;7138;49.246;9.100;2022-08-27T00:53:48;41.65;;;29.60;;
14118;SDS011;7138;49.246;9.100;2022-08-27T00:58:48;35.35;;;28.58;;
14118;SDS011;7138;49.246;9.100;2022-08-27T01:01:17;41.70;;;29.98;;
14118;SDS011;7138;49.246;9.100;2022-08-27T01:03:48;41.75;;;29.40;;
14118;SDS011;7138;49.246;9.100;2022-08-27T01:06:19;40.75;;;30.77;;
14118;SDS011;7138;49.246;9.100;2022-08-27T01:08:48;39.63;;;29.98;;
14118;SDS011;7138;49.246;9.100;2022-08-27T01:11:21;39.70;;;30.83;;
14118;SDS011;7138;49.246;9.100;2022-08-27T01:13:48;42.03;;;30.88;;
14118;SDS011;7138;49.246;9.100;2022-08-27T01:16:16;42.75;;;32.25;;
14118;SDS011;7138;49.246;9.100;2022-08-27T01:18:47;41.50;;;31.23;;
14118;SDS011;7138;49.246;9.100;2022-08-27T01:21:17;42.25;;;31.33;;
14118;SDS011;7138;49.246;9.100;2022-08-27T01:24:05;46.47;;;32.90;;
14118;SDS011;7138;49.246;9.100;2022-08-27T01:26:45;41.00;;;31.90;;
14118;SDS011;7138;49.246;9.100;2022-08-27T01:29:11;41.28;;;32.05;;
14118;SDS011;7138;49.246;9.100;2022-08-27T01:31:39;41.35;;;31.55;;
14118;SDS011;7138;49.246;9.100;2022-08-27T01:34:05;41.85;;;32.22;;
14118;SDS011;7138;49.246;9.100;2022-08-27T01:36:31;46.92;;;33.35;;
14118;SDS011;7138;49.246;9.100;2022-08-27T01:38:57;47.97;;;32.72;;
14118;SDS011;7138;49.246;9.100;2022-08-27T01:41:25;41.53;;;32.03;;
14118;SDS011;7138;49.246;9.100;2022-08-27T01:43:51;44.95;;;33.10;;
14118;SDS011;7138;49.246;9.100;2022-08-27T01:46:19;42.17;;;32.25;;
14118;SDS011;7138;49.246;9.100;2022-08-27T01:48:46;39.38;;;31.65;;
14118;SDS011;7138;49.246;9.100;2022-08-27T01:51:12;42.00;;;32.03;;
14118;SDS011;7138;49.246;9.100;2022-08-27T01:53:38;45.13;;;33.28;;
14118;SDS011;7138;49.246;9.100;2022-08-27T01:56:04;40.38;;;31.42;;
14118;SDS011;7138;49.246;9.100;2022-08-27T01:58:31;38.38;;;31.48;;
14118;SDS011;7138;49.246;9.100;2022-08-27T02:00:59;41.70;;;31.88;;
14118;SDS011;7138;49.246;9.100;2022-08-27T02:03:30;41.35;;;31.45;;
14118;SDS011;7138;49.246;9.100;2022-08-27T02:08:29;41.92;;;30.05;;
14118;SDS011;7138;49.246;9.100;2022-08-27T02:10:55;43.05;;;31.10;;
14118;SDS011;7138;49.246;9.100;2022-08-27T02:13:20;37.00;;;30.35;;
14118;SDS011;7138;49.246;9.100;2022-08-27T02:15:48;42.42;;;31.80;;
14118;SDS011;7138;49.246;9.100;2022-08-27T02:18:14;47.45;;;32.15;;
14118;SDS011;7138;49.246;9.100;2022-08-27T02:20:40;38.72;;;30.67;;
14118;SDS011;7138;49.246;9.100;2022-08-27T02:23:08;41.80;;;32.67;;
14118;SDS011;7138;49.246;9.100;2022-08-27T02:25:34;40.08;;;30.75;;
14118;SDS011;7138;49.246;9.100;2022-08-27T02:28:01;39.13;;;30.92;;
14118;SDS011;7138;49.246;9.100;2022-08-27T02:30:28;43.35;;;30.83;;
14118;SDS011;7138;49.246;9.100;2022-08-27T02:32:57;42.60;;;32.47;;
14118;SDS011;7138;49.246;9.100;2022-08-27T02:35:25;38.15;;;30.83;;
14118;SDS011;7138;49.246;9.100;2022-08-27T02:37:52;40.25;;;31.92;;
14118;SDS011;7138;49.246;9.100;2022-08-27T02:40:20;40.63;;;32.17;;
14118;SDS011;7138;49.246;9.100;2022-08-27T02:42:47;42.40;;;32.97;;
14118;SDS011;7138;49.246;9.100;2022-08-27T02:45:14;39.03;;;32.38;;
14118;SDS011;7138;49.246;9.100;2022-08-27T02:47:42;42.03;;;33.58;;
14118;SDS011;7138;49.246;9.100;2022-08-27T02:50:10;40.85;;;32.25;;
14118;SDS011;7138;49.246;9.100;2022-08-27T02:52:38;42.72;;;33.63;;
14118;SDS011;7138;49.246;9.100;2022-08-27T02:55:05;43.47;;;33.53;;
14118;SDS011;7138;49.246;9.100;2022-08-27T02:57:32;45.92;;;32.72;;
14118;SDS011;7138;49.246;9.100;2022-08-27T02:59:58;47.20;;;34.38;;
14118;SDS011;7138;49.246;9.100;2022-08-27T03:02:24;44.03;;;34.50;;
14118;SDS011;7138;49.246;9.100;2022-08-27T03:04:50;44.45;;;35.97;;
14118;SDS011;7138;49.246;9.100;2022-08-27T03:07:17;43.40;;;34.45;;
14118;SDS011;7138;49.246;9.100;2022-08-27T03:09:43;43.42;;;33.85;;
14118;SDS011;7138;49.246;9.100;2022-08-27T03:12:09;45.83;;;35.28;;
14118;SDS011;7138;49.246;9.100;2022-08-27T03:14:35;43.35;;;35.28;;
14118;SDS011;7138;49.246;9.100;2022-08-27T03:17:01;46.97;;;36.65;;
14118;SDS011;7138;49.246;9.100;2022-08-27T03:19:45;45.75;;;36.03;;
14118;SDS011;7138;49.246;9.100;2022-08-27T03:22:11;46.45;;;36.70;;
14118;SDS011;7138;49.246;9.100;2022-08-27T03:24:38;50.65;;;38.30;;
14118;SDS011;7138;49.246;9.100;2022-08-27T03:27:04;51.53;;;39.38;;
14118;SDS011;7138;49.246;9.100;2022-08-27T03:29:30;51.30;;;37.47;;
14118;SDS011;7138;49.246;9.100;2022-08-27T03:31:58;55.22;;;38.58;;
14118;SDS011;7138;49.246;9.100;2022-08-27T03:34:25;51.92;;;39.17;;
14118;SDS011;7138;49.246;9.100;2022-08-27T03:36:51;49.63;;;37.35;;
14118;SDS011;7138;49.246;9.100;2022-08-27T03:39:16;56.00;;;38.63;;
14118;SDS011;7138;49.246;9.100;2022-08-27T03:41:44;54.95;;;39.33;;
14118;SDS011;7138;49.246;9.100;2022-08-27T03:44:10;55.15;;;39.65;;
14118;SDS011;7138;49.246;9.100;2022-08-27T03:46:36;51.47;;;38.25;;
14118;SDS011;7138;49.246;9.100;2022-08-27T03:49:02;51.80;;;39.42;;
14118;SDS011;7138;49.246;9.100;2022-08-27T03:51:29;55.15;;;39.08;;
14118;SDS011;7138;49.246;9.100;2022-08-27T03:53:54;53.92;;;39.60;;
14118;SDS011;7138;49.246;9.100;2022-08-27T03:56:20;50.35;;;38.78;;
14118;SDS011;7138;49.246;9.100;2022-08-27T03:58:48;50.55;;;38.55;;
14118;SDS011;7138;49.246;9.100;2022-08-27T04:01:15;56.03;;;40.50;;
14118;SDS011;7138;49.246;9.100;2022-08-27T04:03:41;52.88;;;37.80;;
14118;SDS011;7138;49.246;9.100;2022-08-27T04:06:08;54.85;;;38.78;;
14118;SDS011;7138;49.246;9.100;2022-08-27T04:08:34;50.63;;;36.35;;
14118;SDS011;7138;49.246;9.100;2022-08-27T04:11:03;49.75;;;37.33;;
14118;SDS011;7138;49.246;9.100;2022-08-27T04:13:31;50.30;;;36.83;;
14118;SDS011;7138;49.246;9.100;2022-08-27T04:15:58;48.25;;;36.47;;
14118;SDS011;7138;49.246;9.100;2022-08-27T04:18:24;51.63;;;36.65;;
14118;SDS011;7138;49.246;9.100;2022-08-27T04:20:50;50.08;;;36.45;;
14118;SDS011;7138;49.246;9.100;2022-08-27T04:23:19;48.13;;;36.22;;
14118;SDS011;7138;49.246;9.100;2022-08-27T04:25:45;51.33;;;34.85;;
14118;SDS011;7138;49.246;9.100;2022-08-27T04:28:12;51.00;;;33.63;;
14118;SDS011;7138;49.246;9.100;2022-08-27T04:30:39;49.95;;;36.80;;
14118;SDS011;7138;49.246;9.100;2022-08-27T04:33:08;44.30;;;34.75;;
14118;SDS011;7138;49.246;9.100;2022-08-27T04:35:34;45.65;;;34.58;;
14118;SDS011;7138;49.246;9.100;2022-08-27T04:38:00;42.78;;;34.80;;
14118;SDS011;7138;49.246;9.100;2022-08-27T04:40:28;47.05;;;34.85;;
14118;SDS011;7138;49.246;9.100;2022-08-27T04:43:13;44.60;;;34.00;;
14118;SDS011;7138;49.246;9.100;2022-08-27T04:45:41;41.25;;;34.90;;
14118;SDS011;7138;49.246;9.100;2022-08-27T04:48:09;51.75;;;35.25;;
14118;SDS011;7138;49.246;9.100;2022-08-27T04:50:38;45.90;;;35.45;;
14118;SDS011;7138;49.246;9.100;2022-08-27T04:53:05;44.08;;;34.47;;
14118;SDS011;7138;49.246;9.100;2022-08-27T04:55:32;44.10;;;34.25;;
14118;SDS011;7138;49.246;9.100;2022-08-27T04:57:58;44.75;;;33.47;;
14118;SDS011;7138;49.246;9.100;2022-08-27T05:00:24;47.38;;;34.47;;
14118;SDS011;7138;49.246;9.100;2022-08-27T05:02:50;46.35;;;33.92;;
14118;SDS011;7138;49.246;9.100;2022-08-27T05:05:17;45.78;;;33.85;;
14118;SDS011;7138;49.246;9.100;2022-08-27T05:07:43;48.53;;;34.10;;
14118;SDS011;7138;49.246;9.100;2022-08-27T05:10:09;45.38;;;33.75;;
14118;SDS011;7138;49.246;9.100;2022-08-27T05:12:35;43.15;;;32.17;;
14118;SDS011;7138;49.246;9.100;2022-08-27T05:15:01;40.40;;;31.95;;
14118;SDS011;7138;49.246;9.100;2022-08-27T05:17:28;47.95;;;33.15;;
14118;SDS011;7138;49.246;9.100;2022-08-27T05:19:56;43.53;;;31.42;;
14118;SDS011;7138;49.246;9.100;2022-08-27T05:22:24;40.38;;;31.77;;
14118;SDS011;7138;49.246;9.100;2022-08-27T05:24:51;40.80;;;30.48;;
14118;SDS011;7138;49.246;9.100;2022-08-27T05:27:17;40.63;;;32.05;;
14118;SDS011;7138;49.246;9.100;2022-08-27T05:29:43;43.80;;;31.85;;
14118;SDS011;7138;49.246;9.100;2022-08-27T05:32:09;41.80;;;31.60;;
14118;SDS011;7138;49.246;9.100;2022-08-27T05:34:35;38.70;;;30.63;;
14118;SDS011;7138;49.246;9.100;2022-08-27T05:37:00;37.05;;;30.45;;
14118;SDS011;7138;49.246;9.100;2022-08-27T05:39:28;39.65;;;29.80;;
14118;SDS011;7138;49.246;9.100;2022-08-27T05:41:55;35.50;;;28.40;;
14118;SDS011;7138;49.246;9.100;2022-08-27T05:44:21;38.22;;;29.40;;
14118;SDS011;7138;49.246;9.100;2022-08-27T05:46:47;35.95;;;28.52;;
14118;SDS011;7138;49.246;9.100;2022-08-27T05:49:13;37.35;;;27.92;;
14118;SDS011;7138;49.246;9.100;2022-08-27T05:51:38;35.85;;;28.40;;
14118;SDS011;7138;49.246;9.100;2022-08-27T05:54:06;36.58;;;28.25;;
14118;SDS011;7138;49.246;9.100;2022-08-27T05:56:40;37.05;;;27.90;;
14118;SDS011;7138;49.246;9.100;2022-08-27T05:59:07;35.45;;;27.38;;
14118;SDS011;7138;49.246;9.100;2022-08-27T06:01:52;31.95;;;26.05;;
14118;SDS011;7138;49.246;9.100;2022-08-27T06:04:21;34.00;;;26.73;;
14118;SDS011;7138;49.246;9.100;2022-08-27T06:06:48;29.08;;;25.65;;
14118;SDS011;7138;49.246;9.100;2022-08-27T06:09:18;32.03;;;25.55;;
14118;SDS011;7138;49.246;9.100;2022-08-27T06:11:48;34.03;;;26.08;;
14118;SDS011;7138;49.246;9.100;2022-08-27T06:14:16;33.88;;;25.75;;
14118;SDS011;7138;49.246;9.100;2022-08-27T06:16:42;29.77;;;24.48;;
14118;SDS011;7138;49.246;9.100;2022-08-27T06:19:08;31.58;;;25.27;;
14118;SDS011;7138;49.246;9.100;2022-08-27T06:21:36;34.30;;;23.25;;
14118;SDS011;7138;49.246;9.100;2022-08-27T06:24:02;29.20;;;22.30;;
14118;SDS011;7138;49.246;9.100;2022-08-27T06:26:28;32.10;;;24.73;;
14118;SDS011;7138;49.246;9.100;2022-08-27T06:28:56;27.95;;;23.38;;
14118;SDS011;7138;49.246;9.100;2022-08-27T06:31:28;27.92;;;21.83;;
14118;SDS011;7138;49.246;9.100;2022-08-27T06:34:01;27.27;;;22.35;;
14118;SDS011;7138;49.246;9.100;2022-08-27T06:36:31;32.20;;;21.92;;
14118;SDS011;7138;49.246;9.100;2022-08-27T06:39:00;27.30;;;22.20;;
14118;SDS011;7138;49.246;9.100;2022-08-27T06:41:26;29.75;;;22.05;;
14118;SDS011;7138;49.246;9.100;2022-08-27T06:43:53;31.25;;;24.05;;
14118;SDS011;7138;49.246;9.100;2022-08-27T06:46:24;32.42;;;24.83;;
14118;SDS011;7138;49.246;9.100;2022-08-27T06:48:53;31.08;;;22.95;;
14118;SDS011;7138;49.246;9.100;2022-08-27T06:51:22;29.88;;;23.30;;
14118;SDS011;7138;49.246;9.100;2022-08-27T06:53:52;29.73;;;22.58;;
14118;SDS011;7138;49.246;9.100;2022-08-27T06:56:21;30.70;;;22.83;;
14118;SDS011;7138;49.246;9.100;2022-08-27T06:58:50;26.92;;;23.15;;
14118;SDS011;7138;49.246;9.100;2022-08-27T07:01:19;34.67;;;24.85;;
14118;SDS011;7138;49.246;9.100;2022-08-27T07:03:48;30.88;;;22.83;;
14118;SDS011;7138;49.246;9.100;2022-08-27T07:06:14;34.30;;;24.63;;
14118;SDS011;7138;49.246;9.100;2022-08-27T07:08:42;31.15;;;23.20;;
14118;SDS011;7138;49.246;9.100;2022-08-27T07:11:10;31.73;;;23.65;;
14118;SDS011;7138;49.246;9.100;2022-08-27T07:13:38;28.98;;;23.50;;
14118;SDS011;7138;49.246;9.100;2022-08-27T07:16:06;32.90;;;23.25;;
14118;SDS011;7138;49.246;9.100;2022-08-27T07:18:36;30.95;;;21.65;;
14118;SDS011;7138;49.246;9.100;2022-08-27T07:21:03;29.95;;;22.10;;
14118;SDS011;7138;49.246;9.100;2022-08-27T07:23:29;31.65;;;22.05;;
14118;SDS011;7138;49.246;9.100;2022-08-27T07:25:57;28.10;;;22.05;;
14118;SDS011;7138;49.246;9.100;2022-08-27T07:28:23;29.88;;;22.25;;
14118;SDS011;7138;49.246;9.100;2022-08-27T07:30:50;27.73;;;21.58;;
14118;SDS011;7138;49.246;9.100;2022-08-27T07:33:17;31.27;;;23.55;;
14118;SDS011;7138;49.246;9.100;2022-08-27T07:35:44;30.77;;;22.42;;
14118;SDS011;7138;49.246;9.100;2022-08-27T07:38:12;33.05;;;23.83;;
14118;SDS011;7138;49.246;9.100;2022-08-27T07:40:39;32.58;;;23.05;;
14118;SDS011;7138;49.246;9.100;2022-08-27T07:43:05;28.65;;;23.08;;
14118;SDS011;7138;49.246;9.100;2022-08-27T07:45:51;34.05;;;23.55;;
14118;SDS011;7138;49.246;9.100;2022-08-27T07:48:20;32.05;;;22.40;;
14118;SDS011;7138;49.246;9.100;2022-08-27T07:50:48;27.73;;;22.17;;
14118;SDS011;7138;49.246;9.100;2022-08-27T07:53:15;30.27;;;22.10;;
14118;SDS011;7138;49.246;9.100;2022-08-27T07:55:41;28.08;;;21.20;;
14118;SDS011;7138;49.246;9.100;2022-08-27T07:58:07;26.52;;;22.17;;
14118;SDS011;7138;49.246;9.100;2022-08-27T08:00:33;32.92;;;23.08;;
14118;SDS011;7138;49.246;9.100;2022-08-27T08:02:59;25.88;;;20.02;;
14118;SDS011;7138;49.246;9.100;2022-08-27T08:05:25;27.83;;;19.92;;
14118;SDS011;7138;49.246;9.100;2022-08-27T08:07:53;31.13;;;20.40;;
14118;SDS011;7138;49.246;9.100;2022-08-27T08:10:19;23.92;;;19.83;;
14118;SDS011;7138;49.246;9.100;2022-08-27T08:12:47;27.33;;;20.13;;
14118;SDS011;7138;49.246;9.100;2022-08-27T08:15:14;24.30;;;19.08;;
14118;SDS011;7138;49.246;9.100;2022-08-27T08:17:42;25.98;;;19.17;;
14118;SDS011;7138;49.246;9.100;2022-08-27T08:20:08;25.27;;;18.70;;
14118;SDS011;7138;49.246;9.100;2022-08-27T08:22:36;26.52;;;17.88;;
14118;SDS011;7138;49.246;9.100;2022-08-27T08:25:04;29.33;;;19.27;;
14118;SDS011;7138;49.246;9.100;2022-08-27T08:27:30;24.73;;;18.20;;
14118;SDS011;7138;49.246;9.100;2022-08-27T08:29:56;26.20;;;18.73;;
14118;SDS011;7138;49.246;9.100;2022-08-27T08:32:23;24.63;;;17.48;;
14118;SDS011;7138;49.246;9.100;2022-08-27T08:34:50;26.13;;;18.02;;
14118;SDS011;7138;49.246;9.100;2022-08-27T08:37:16;26.13;;;18.20;;
14118;SDS011;7138;49.246;9.100;2022-08-27T08:39:42;25.13;;;17.85;;
14118;SDS011;7138;49.246;9.100;2022-08-27T08:42:17;25.20;;;17.75;;
14118;SDS011;7138;49.246;9.100;2022-08-27T08:44:55;26.13;;;17.50;;
14118;SDS011;7138;49.246;9.100;2022-08-27T08:49:59;26.85;;;15.95;;
14118;SDS011;7138;49.246;9.100;2022-08-27T08:52:37;24.95;;;15.95;;
14118;SDS011;7138;49.246;9.100;2022-08-27T08:55:12;22.70;;;16.85;;
14118;SDS011;7138;49.246;9.100;2022-08-27T08:57:55;23.98;;;15.95;;
14118;SDS011;7138;49.246;9.100;2022-08-27T09:00:36;23.00;;;15.65;;
14118;SDS011;7138;49.246;9.100;2022-08-27T09:03:03;22.75;;;16.38;;
14118;SDS011;7138;49.246;9.100;2022-08-27T09:05:30;23.83;;;15.48;;
14118;SDS011;7138;49.246;9.100;2022-08-27T09:07:58;22.33;;;15.30;;
14118;SDS011;7138;49.246;9.100;2022-08-27T09:10:36;23.70;;;15.93;;
14118;SDS011;7138;49.246;9.100;2022-08-27T09:13:11;20.38;;;14.75;;
14118;SDS011;7138;49.246;9.100;2022-08-27T09:15:46;22.38;;;15.00;;
14118;SDS011;7138;49.246;9.100;2022-08-27T09:18:15;21.02;;;13.88;;
14118;SDS011;7138;49.246;9.100;2022-08-27T09:20:41;17.27;;;13.00;;
14118;SDS011;7138;49.246;9.100;2022-08-27T09:23:17;20.13;;;14.05;;
14118;SDS011;7138;49.246;9.100;2022-08-27T09:25:55;23.27;;;13.60;;
14118;SDS011;7138;49.246;9.100;2022-08-27T09:28:22;18.42;;;12.93;;
14118;SDS011;7138;49.246;9.100;2022-08-27T09:31:12;16.35;;;12.63;;
14118;SDS011;7138;49.246;9.100;2022-08-27T09:33:41;16.83;;;11.98;;
14118;SDS011;7138;49.246;9.100;2022-08-27T09:36:07;17.67;;;12.35;;
14118;SDS011;7138;49.246;9.100;2022-08-27T09:38:39;17.70;;;12.50;;
14118;SDS011;7138;49.246;9.100;2022-08-27T09:41:19;20.80;;;12.60;;
14118;SDS011;7138;49.246;9.100;2022-08-27T09:43:59;18.30;;;12.68;;
14118;SDS011;7138;49.246;9.100;2022-08-27T09:46:31;18.33;;;12.10;;
14118;SDS011;7138;49.246;9.100;2022-08-27T09:49:07;16.65;;;12.07;;
14118;SDS011;7138;49.246;9.100;2022-08-27T09:51:34;21.98;;;12.70;;
14118;SDS011;7138;49.246;9.100;2022-08-27T09:54:06;18.15;;;12.32;;
14118;SDS011;7138;49.246;9.100;2022-08-27T09:56:34;17.83;;;11.55;;
14118;SDS011;7138;49.246;9.100;2022-08-27T09:59:04;18.40;;;12.98;;
14118;SDS011;7138;49.246;9.100;2022-08-27T10:01:34;21.30;;;12.43;;
14118;SDS011;7138;49.246;9.100;2022-08-27T10:04:14;22.80;;;12.43;;
14118;SDS011;7138;49.246;9.100;2022-08-27T10:06:48;19.35;;;12.27;;
14118;SDS011;7138;49.246;9.100;2022-08-27T10:09:16;20.83;;;12.45;;
14118;SDS011;7138;49.246;9.100;2022-08-27T10:11:52;19.85;;;12.07;;
14118;SDS011;7138;49.246;9.100;2022-08-27T10:14:43;17.77;;;12.35;;
14118;SDS011;7138;49.246;9.100;2022-08-27T10:17:17;18.65;;;11.70;;
14118;SDS011;7138;49.246;9.100;2022-08-27T10:19:57;14.68;;;10.77;;
14118;SDS011;7138;49.246;9.100;2022-08-27T10:22:37;15.60;;;10.38;;
14118;SDS011;7138;49.246;9.100;2022-08-27T10:25:22;16.52;;;9.68;;
14118;SDS011;7138;49.246;9.100;2022-08-27T10:28:04;15.98;;;9.70;;
14118;SDS011;7138;49.246;9.100;2022-08-27T10:30:50;17.63;;;10.35;;
14118;SDS011;7138;49.246;9.100;2022-08-27T10:33:41;15.48;;;10.60;;
14118;SDS011;7138;49.246;9.100;2022-08-27T10:36:39;17.92;;;9.93;;
14118;SDS011;7138;49.246;9.100;2022-08-27T10:39:20;17.65;;;9.88;;
14118;SDS011;7138;49.246;9.100;2022-08-27T10:42:09;17.17;;;9.57;;
14118;SDS011;7138;49.246;9.100;2022-08-27T10:44:48;16.00;;;9.57;;
14118;SDS011;7138;49.246;9.100;2022-08-27T10:47:34;15.98;;;9.52;;
14118;SDS011;7138;49.246;9.100;2022-08-27T10:50:24;15.75;;;9.48;;
14118;SDS011;7138;49.246;9.100;2022-08-27T10:52:54;17.17;;;10.90;;
14118;SDS011;7138;49.246;9.100;2022-08-27T10:55:29;18.67;;;11.25;;
14118;SDS011;7138;49.246;9.100;2022-08-27T10:58:15;14.25;;;10.27;;
14118;SDS011;7138;49.246;9.100;2022-08-27T11:00:59;14.70;;;10.45;;
14118;SDS011;7138;49.246;9.100;2022-08-27T11:03:37;14.45;;;9.73;;
14118;SDS011;7138;49.246;9.100;2022-08-27T11:06:11;15.45;;;9.57;;
14118;SDS011;7138;49.246;9.100;2022-08-27T11:08:51;14.30;;;8.95;;
14118;SDS011;7138;49.246;9.100;2022-08-27T11:11:25;16.65;;;9.90;;
14118;SDS011;7138;49.246;9.100;2022-08-27T11:14:01;16.42;;;11.00;;
14118;SDS011;7138;49.246;9.100;2022-08-27T11:16:35;14.68;;;9.77;;
14118;SDS011;7138;49.246;9.100;2022-08-27T11:19:11;10.40;;;7.88;;
14118;SDS011;7138;49.246;9.100;2022-08-27T11:21:50;11.07;;;7.50;;
14118;SDS011;7138;49.246;9.100;2022-08-27T11:24:30;9.82;;;7.18;;
14118;SDS011;7138;49.246;9.100;2022-08-27T11:27:04;11.93;;;7.90;;
14118;SDS011;7138;49.246;9.100;2022-08-27T11:29:33;12.70;;;8.30;;
14118;SDS011;7138;49.246;9.100;2022-08-27T11:32:09;20.27;;;8.38;;
14118;SDS011;7138;49.246;9.100;2022-08-27T11:34:48;16.90;;;9.27;;
14118;SDS011;7138;49.246;9.100;2022-08-27T11:37:33;15.05;;;9.75;;
14118;SDS011;7138;49.246;9.100;2022-08-27T11:40:19;13.45;;;8.75;;
14118;SDS011;7138;49.246;9.100;2022-08-27T11:43:11;14.40;;;8.55;;
14118;SDS011;7138;49.246;9.100;2022-08-27T11:45:50;10.90;;;8.93;;
14118;SDS011;7138;49.246;9.100;2022-08-27T11:50:55;9.75;;;7.68;;
14118;SDS011;7138;49.246;9.100;2022-08-27T11:53:30;11.23;;;7.40;;
14118;SDS011;7138;49.246;9.100;2022-08-27T11:56:08;8.93;;;6.68;;
14118;SDS011;7138;49.246;9.100;2022-08-27T11:58:35;11.98;;;6.75;;
14118;SDS011;7138;49.246;9.100;2022-08-27T12:01:01;7.82;;;6.35;;
14118;SDS011;7138;49.246;9.100;2022-08-27T12:03:39;8.75;;;7.28;;
14118;SDS011;7138;49.246;9.100;2022-08-27T12:06:15;8.48;;;6.60;;
14118;SDS011;7138;49.246;9.100;2022-08-27T12:08:50;9.23;;;6.90;;
14118;SDS011;7138;49.246;9.100;2022-08-27T12:11:28;11.20;;;6.72;;
14118;SDS011;7138;49.246;9.100;2022-08-27T12:14:05;8.82;;;6.40;;
14118;SDS011;7138;49.246;9.100;2022-08-27T12:16:55;11.27;;;6.30;;
14118;SDS011;7138;49.246;9.100;2022-08-27T12:19:31;7.68;;;6.47;;
14118;SDS011;7138;49.246;9.100;2022-08-27T12:22:19;11.05;;;7.95;;
14118;SDS011;7138;49.246;9.100;2022-08-27T12:25:25;12.13;;;8.77;;
14118;SDS011;7138;49.246;9.100;2022-08-27T12:27:55;13.15;;;9.77;;
14118;SDS011;7138;49.246;9.100;2022-08-27T12:30:28;13.75;;;9.43;;
14118;SDS011;7138;49.246;9.100;2022-08-27T12:32:57;15.02;;;10.43;;
14118;SDS011;7138;49.246;9.100;2022-08-27T12:35:36;16.02;;;11.63;;
14118;SDS011;7138;49.246;9.100;2022-08-27T12:38:13;17.13;;;12.05;;
14118;SDS011;7138;49.246;9.100;2022-08-27T12:40:45;17.45;;;12.38;;
14118;SDS011;7138;49.246;9.100;2022-08-27T12:43:16;17.63;;;13.18;;
14118;SDS011;7138;49.246;9.100;2022-08-27T12:45:46;17.55;;;13.27;;
14118;SDS011;7138;49.246;9.100;2022-08-27T12:48:16;17.77;;;12.88;;
14118;SDS011;7138;49.246;9.100;2022-08-27T12:50:50;20.38;;;12.75;;
14118;SDS011;7138;49.246;9.100;2022-08-27T12:53:22;19.75;;;13.68;;
14118;SDS011;7138;49.246;9.100;2022-08-27T12:56:12;18.50;;;13.35;;
14118;SDS011;7138;49.246;9.100;2022-08-27T12:59:27;18.13;;;13.70;;
14118;SDS011;7138;49.246;9.100;2022-08-27T13:02:32;18.85;;;12.32;;
14118;SDS011;7138;49.246;9.100;2022-08-27T13:05:23;21.30;;;13.43;;
14118;SDS011;7138;49.246;9.100;2022-08-27T13:07:50;16.25;;;13.20;;
14118;SDS011;7138;49.246;9.100;2022-08-27T13:10:19;20.60;;;13.50;;
14118;SDS011;7138;49.246;9.100;2022-08-27T13:12:59;21.88;;;13.00;;
14118;SDS011;7138;49.246;9.100;2022-08-27T13:15:29;19.30;;;13.10;;
14118;SDS011;7138;49.246;9.100;2022-08-27T13:17:58;18.30;;;12.27;;
14118;SDS011;7138;49.246;9.100;2022-08-27T13:20:25;17.27;;;11.75;;
14118;SDS011;7138;49.246;9.100;2022-08-27T13:22:52;18.95;;;11.95;;
14118;SDS011;7138;49.246;9.100;2022-08-27T13:25:24;21.67;;;11.48;;
14118;SDS011;7138;49.246;9.100;2022-08-27T13:27:53;15.60;;;11.60;;
14118;SDS011;7138;49.246;9.100;2022-08-27T13:30:23;15.18;;;12.00;;
14118;SDS011;7138;49.246;9.100;2022-08-27T13:32:53;16.85;;;11.70;;
14118;SDS011;7138;49.246;9.100;2022-08-27T13:35:20;17.02;;;10.90;;
14118;SDS011;7138;49.246;9.100;2022-08-27T13:37:48;16.42;;;10.85;;
14118;SDS011;7138;49.246;9.100;2022-08-27T13:40:26;14.25;;;9.48;;
14118;SDS011;7138;49.246;9.100;2022-08-27T13:42:55;15.18;;;9.05;;
14118;SDS011;7138;49.246;9.100;2022-08-27T13:45:27;17.60;;;10.40;;
14118;SDS011;7138;49.246;9.100;2022-08-27T13:47:54;13.23;;;9.50;;
14118;SDS011;7138;49.246;9.100;2022-08-27T13:50:21;15.32;;;9.57;;
14118;SDS011;7138;49.246;9.100;2022-08-27T13:52:50;13.18;;;8.73;;
14118;SDS011;7138;49.246;9.100;2022-08-27T13:55:46;12.82;;;9.85;;
14118;SDS011;7138;49.246;9.100;2022-08-27T13:58:16;13.60;;;8.82;;
14118;SDS011;7138;49.246;9.100;2022-08-27T14:00:47;12.05;;;7.15;;
14118;SDS011;7138;49.246;9.100;2022-08-27T14:03:23;10.55;;;7.90;;
14118;SDS011;7138;49.246;9.100;2022-08-27T14:05:55;11.70;;;7.85;;
14118;SDS011;7138;49.246;9.100;2022-08-27T14:08:21;13.15;;;7.57;;
14118;SDS011;7138;49.246;9.100;2022-08-27T14:10:58;16.13;;;8.68;;
14118;SDS011;7138;49.246;9.100;2022-08-27T14:13:28;12.48;;;8.18;;
14118;SDS011;7138;49.246;9.100;2022-08-27T14:16:12;11.13;;;7.93;;
14118;SDS011;7138;49.246;9.100;2022-08-27T14:18:49;14.85;;;9.20;;
14118;SDS011;7138;49.246;9.100;2022-08-27T14:21:18;15.73;;;9.00;;
14118;SDS011;7138;49.246;9.100;2022-08-27T14:23:44;16.70;;;8.15;;
14118;SDS011;7138;49.246;9.100;2022-08-27T14:26:11;12.20;;;8.43;;
14118;SDS011;7138;49.246;9.100;2022-08-27T14:28:39;12.07;;;8.45;;
14118;SDS011;7138;49.246;9.100;2022-08-27T14:31:06;11.70;;;8.25;;
14118;SDS011;7138;49.246;9.100;2022-08-27T14:33:32;10.57;;;7.50;;
14118;SDS011;7138;49.246;9.100;2022-08-27T14:35:58;10.23;;;7.75;;
14118;SDS011;7138;49.246;9.100;2022-08-27T14:38:30;11.50;;;7.72;;
14118;SDS011;7138;49.246;9.100;2022-08-27T14:40:58;12.30;;;7.95;;
14118;SDS011;7138;49.246;9.100;2022-08-27T14:43:28;13.75;;;7.43;;
14118;SDS011;7138;49.246;9.100;2022-08-27T14:45:54;12.13;;;6.80;;
14118;SDS011;7138;49.246;9.100;2022-08-27T14:48:23;9.68;;;6.50;;
14118;SDS011;7138;49.246;9.100;2022-08-27T14:50:54;7.68;;;6.28;;
14118;SDS011;7138;49.246;9.100;2022-08-27T14:53:20;9.82;;;5.97;;
14118;SDS011;7138;49.246;9.100;2022-08-27T14:55:46;10.65;;;6.85;;
14118;SDS011;7138;49.246;9.100;2022-08-27T14:58:12;11.63;;;6.35;;
14118;SDS011;7138;49.246;9.100;2022-08-27T15:00:40;9.00;;;6.00;;
14118;SDS011;7138;49.246;9.100;2022-08-27T15:03:07;11.13;;;6.55;;
14118;SDS011;7138;49.246;9.100;2022-08-27T15:05:34;9.30;;;6.53;;
14118;SDS011;7138;49.246;9.100;2022-08-27T15:08:00;9.73;;;6.63;;
14118;SDS011;7138;49.246;9.100;2022-08-27T15:10:28;12.20;;;7.65;;
14118;SDS011;7138;49.246;9.100;2022-08-27T15:12:54;9.48;;;6.90;;